This is the latest recevied weather packets stored in our database for station/object OE9SAU-10. If no packets are shown the sender has not sent any weather packets the latest 10 day(s).
| Time | Temp. | Humidity | Pressure | Rain* | Wind** | Luminosity | Snow |
|---|---|---|---|---|---|---|---|
| 1777575792 | 18.89° C | 32% | 1025.6 hPa | - | - | - | - |
| 1777574892 | 19.44° C | 31% | 1025.3 hPa | - | - | - | - |
| 1777573992 | 19.44° C | 31% | 1025 hPa | - | - | - | - |
| 1777573091 | 20° C | 30% | 1024.9 hPa | - | - | - | - |
| 1777572191 | 20° C | 29% | 1024.8 hPa | - | - | - | - |
| 1777571291 | 20.56° C | 28% | 1024.7 hPa | - | - | - | - |
| 1777570391 | 20.56° C | 28% | 1024.6 hPa | - | - | - | - |
| 1777569491 | 20.56° C | 28% | 1024.5 hPa | - | - | - | - |
| 1777568591 | 21.11° C | 28% | 1024.5 hPa | - | - | - | - |
| 1777567691 | 21.11° C | 28% | 1024.4 hPa | - | - | - | - |
| 1777566791 | 21.67° C | 28% | 1024.3 hPa | - | - | - | - |
| 1777565891 | 21.67° C | 28% | 1024.3 hPa | - | - | - | - |
| 1777564991 | 21.67° C | 28% | 1024.1 hPa | - | - | - | - |
| 1777564091 | 21.67° C | 29% | 1024.1 hPa | - | - | - | - |
| 1777563191 | 21.67° C | 29% | 1024.1 hPa | - | - | - | - |
| 1777562291 | 21.67° C | 29% | 1024 hPa | - | - | - | - |
| 1777561391 | 21.67° C | 29% | 1023.9 hPa | - | - | - | - |
| 1777560491 | 22.22° C | 29% | 1023.8 hPa | - | - | - | - |
| 1777559590 | 21.67° C | 30% | 1024 hPa | - | - | - | - |
| 1777558691 | 21.67° C | 32% | 1024 hPa | - | - | - | - |
| 1777557790 | 21.67° C | 31% | 1024 hPa | - | - | - | - |
| 1777556890 | 20.56° C | 33% | 1024.1 hPa | - | - | - | - |
| 1777555990 | 21.11° C | 33% | 1024 hPa | - | - | - | - |
| 1777555090 | 20.56° C | 32% | 1024.1 hPa | - | - | - | - |
| 1777554190 | 20.56° C | 31% | 1024.2 hPa | - | - | - | - |
* Rain since midnight (hover to see other rain measurements)
** Current wind speed in m/s (hover to see current wind gust speed)